Campobello, SC (29322)

3:33 PM EDT on March 26, 2017 (GMT -0400)
Paulownia Vineyards | | Change Station

Elev 994 ft 35.15 °N, 82.19 °W | Updated 40 seconds ago

Overcast
Overcast
66.7 °F
Feels Like 66.7 °F
N
0.0
Wind Variable Wind from NE
Gusts 1.0 mph

Today
High -- | Low -- °F
--% Chance of Precip.
Yesterday
High -- | Low -- °F
Precip. -- in
Pressure 30.10 in
Visibility 10.0 miles
Clouds Scattered Clouds 3200 ft
Mostly Cloudy 4600 ft
Overcast 10000 ft
Dew Point 62 °F
Humidity 84%
Rainfall 0.23 in
Snow Depth Not available.
7:23 AM 7:45 PM
Waning Crescent, 2% visible
SPECI KGSP 261909Z 33008KT 10SM -RA SCT032 BKN046 OVC100 21/14 A3010 RMK AO2 RAB08 P0000 T02110139
Pressure 30.10 in
Visibility 10.0 miles
Clouds Scattered Clouds 3200 ft
Mostly Cloudy 4600 ft
Overcast 10000 ft
Dew Point 62 °F
Humidity 84%
Rainfall 0.23 in
Snow Depth Not available.
7:23 AM 7:45 PM
Waning Crescent, 2% visible
SPECI KGSP 261909Z 33008KT 10SM -RA SCT032 BKN046 OVC100 21/14 A3010 RMK AO2 RAB08 P0000 T02110139

Get Severe Weather Alerts

Thanks for signing up!

Be on the lookout for a verification email in your inbox.

You'll start receiving the daily forecast at 8 AM.

×

10-Day Weather Forecast

Almanac

Astronomy

Mar. 26, 2017 Rise Set
Actual Time
Civil Twilight
Nautical Twilight
Astronomical Twilight
Moon
Length of Visible Light
Length of Day
Tomorrow will be .
, % of the Moon is Illuminated

Today's Extremes

State Highs State Lows

Community

WunderPhotos

Upload Photos

1,962,540 photos uploaded!

WunderBlog® & News

Nearby

Air Quality

  Air Quality AQ Index Pollutant
Not available.

Snow Depth

Station Depth Elevation

Earthquake Activity

City Distance Mag. Time & Date
Minimum magnitude displayed is 2.5.

Earthquake Activity

City Distance Mag. Time & Date
Minimum magnitude displayed is 2.5.

Coastal Water Temperatures

Place Temperature

Stations

Nearby Weather Stations

Station Location Temp. Windchill Dew Point Humidity Wind Precip. Elev Updated Type
                   

Watches & Warnings

There are currently no watches in effect.